sensor_id;sensor_type;location;lat;lon;timestamp;P1;durP1;ratioP1;P2;durP2;ratioP2
4911;SDS011;2471;47.056;8.350;2023-12-22T00:01:31;5.70;;;4.38;;
4911;SDS011;2471;47.056;8.350;2023-12-22T00:03:57;7.20;;;4.63;;
4911;SDS011;2471;47.056;8.350;2023-12-22T00:06:23;4.15;;;2.53;;
4911;SDS011;2471;47.056;8.350;2023-12-22T00:08:49;6.07;;;3.90;;
4911;SDS011;2471;47.056;8.350;2023-12-22T00:11:15;7.78;;;4.63;;
4911;SDS011;2471;47.056;8.350;2023-12-22T00:13:41;7.40;;;4.75;;
4911;SDS011;2471;47.056;8.350;2023-12-22T00:16:07;10.63;;;5.95;;
4911;SDS011;2471;47.056;8.350;2023-12-22T00:18:33;7.47;;;4.60;;
4911;SDS011;2471;47.056;8.350;2023-12-22T00:20:59;16.00;;;9.02;;
4911;SDS011;2471;47.056;8.350;2023-12-22T00:23:25;3.03;;;2.53;;
4911;SDS011;2471;47.056;8.350;2023-12-22T00:25:51;8.97;;;5.30;;
4911;SDS011;2471;47.056;8.350;2023-12-22T00:28:17;5.45;;;4.03;;
4911;SDS011;2471;47.056;8.350;2023-12-22T00:30:43;10.75;;;6.72;;
4911;SDS011;2471;47.056;8.350;2023-12-22T00:33:09;7.63;;;5.03;;
4911;SDS011;2471;47.056;8.350;2023-12-22T00:35:35;6.63;;;4.13;;
4911;SDS011;2471;47.056;8.350;2023-12-22T00:38:01;3.97;;;2.50;;
4911;SDS011;2471;47.056;8.350;2023-12-22T00:40:27;3.75;;;3.00;;
4911;SDS011;2471;47.056;8.350;2023-12-22T00:42:53;2.53;;;1.67;;
4911;SDS011;2471;47.056;8.350;2023-12-22T00:45:19;8.03;;;5.10;;
4911;SDS011;2471;47.056;8.350;2023-12-22T00:47:45;5.00;;;2.80;;
4911;SDS011;2471;47.056;8.350;2023-12-22T00:50:11;3.90;;;2.65;;
4911;SDS011;2471;47.056;8.350;2023-12-22T00:52:37;6.40;;;4.30;;
4911;SDS011;2471;47.056;8.350;2023-12-22T00:55:03;3.20;;;2.50;;
4911;SDS011;2471;47.056;8.350;2023-12-22T00:57:29;4.00;;;2.97;;
4911;SDS011;2471;47.056;8.350;2023-12-22T00:59:55;5.32;;;3.05;;
4911;SDS011;2471;47.056;8.350;2023-12-22T01:02:21;3.00;;;2.60;;
4911;SDS011;2471;47.056;8.350;2023-12-22T01:04:47;7.32;;;4.60;;
4911;SDS011;2471;47.056;8.350;2023-12-22T01:07:13;5.25;;;3.63;;
4911;SDS011;2471;47.056;8.350;2023-12-22T01:09:39;12.55;;;7.28;;
4911;SDS011;2471;47.056;8.350;2023-12-22T01:12:05;10.90;;;6.57;;
4911;SDS011;2471;47.056;8.350;2023-12-22T01:14:32;3.47;;;2.50;;
4911;SDS011;2471;47.056;8.350;2023-12-22T01:16:58;8.13;;;5.03;;
4911;SDS011;2471;47.056;8.350;2023-12-22T01:19:25;9.77;;;5.90;;
4911;SDS011;2471;47.056;8.350;2023-12-22T01:21:51;9.20;;;5.93;;
4911;SDS011;2471;47.056;8.350;2023-12-22T01:24:17;4.18;;;3.15;;
4911;SDS011;2471;47.056;8.350;2023-12-22T01:26:43;8.10;;;4.65;;
4911;SDS011;2471;47.056;8.350;2023-12-22T01:29:09;10.15;;;6.07;;
4911;SDS011;2471;47.056;8.350;2023-12-22T01:31:35;8.20;;;5.05;;
4911;SDS011;2471;47.056;8.350;2023-12-22T01:34:01;4.20;;;2.65;;
4911;SDS011;2471;47.056;8.350;2023-12-22T01:36:27;4.80;;;3.60;;
4911;SDS011;2471;47.056;8.350;2023-12-22T01:38:53;5.55;;;3.85;;
4911;SDS011;2471;47.056;8.350;2023-12-22T01:41:19;4.93;;;3.40;;
4911;SDS011;2471;47.056;8.350;2023-12-22T01:43:45;4.30;;;2.60;;
4911;SDS011;2471;47.056;8.350;2023-12-22T01:46:11;3.70;;;2.10;;
4911;SDS011;2471;47.056;8.350;2023-12-22T01:48:37;5.78;;;3.80;;
4911;SDS011;2471;47.056;8.350;2023-12-22T01:51:04;3.45;;;2.10;;
4911;SDS011;2471;47.056;8.350;2023-12-22T01:53:31;4.40;;;2.60;;
4911;SDS011;2471;47.056;8.350;2023-12-22T01:55:57;11.30;;;6.80;;
4911;SDS011;2471;47.056;8.350;2023-12-22T01:58:24;9.57;;;5.57;;
4911;SDS011;2471;47.056;8.350;2023-12-22T02:00:52;7.50;;;3.50;;
4911;SDS011;2471;47.056;8.350;2023-12-22T02:03:18;5.65;;;3.60;;
4911;SDS011;2471;47.056;8.350;2023-12-22T02:05:44;5.85;;;3.58;;
4911;SDS011;2471;47.056;8.350;2023-12-22T02:08:12;3.65;;;2.75;;
4911;SDS011;2471;47.056;8.350;2023-12-22T02:10:38;2.05;;;1.40;;
4911;SDS011;2471;47.056;8.350;2023-12-22T02:13:04;2.90;;;2.03;;
4911;SDS011;2471;47.056;8.350;2023-12-22T02:15:31;4.35;;;1.75;;
4911;SDS011;2471;47.056;8.350;2023-12-22T02:18:07;8.57;;;4.80;;
4911;SDS011;2471;47.056;8.350;2023-12-22T02:20:34;10.18;;;5.50;;
4911;SDS011;2471;47.056;8.350;2023-12-22T02:23:00;8.15;;;4.80;;
4911;SDS011;2471;47.056;8.350;2023-12-22T02:25:26;9.60;;;5.57;;
4911;SDS011;2471;47.056;8.350;2023-12-22T02:27:53;6.97;;;4.20;;
4911;SDS011;2471;47.056;8.350;2023-12-22T02:30:24;7.18;;;3.70;;
4911;SDS011;2471;47.056;8.350;2023-12-22T02:32:51;6.63;;;3.50;;
4911;SDS011;2471;47.056;8.350;2023-12-22T02:35:19;10.45;;;5.57;;
4911;SDS011;2471;47.056;8.350;2023-12-22T02:37:47;7.50;;;4.03;;
4911;SDS011;2471;47.056;8.350;2023-12-22T02:40:14;5.70;;;3.50;;
4911;SDS011;2471;47.056;8.350;2023-12-22T02:42:40;7.70;;;3.33;;
4911;SDS011;2471;47.056;8.350;2023-12-22T02:45:10;10.07;;;5.70;;
4911;SDS011;2471;47.056;8.350;2023-12-22T02:47:38;8.00;;;3.60;;
4911;SDS011;2471;47.056;8.350;2023-12-22T02:50:04;5.20;;;3.10;;
4911;SDS011;2471;47.056;8.350;2023-12-22T02:52:30;8.20;;;4.53;;
4911;SDS011;2471;47.056;8.350;2023-12-22T02:54:57;6.72;;;4.18;;
4911;SDS011;2471;47.056;8.350;2023-12-22T02:57:23;5.50;;;2.75;;
4911;SDS011;2471;47.056;8.350;2023-12-22T02:59:49;4.78;;;2.08;;
4911;SDS011;2471;47.056;8.350;2023-12-22T03:02:15;6.65;;;3.63;;
4911;SDS011;2471;47.056;8.350;2023-12-22T03:04:41;10.52;;;5.75;;
4911;SDS011;2471;47.056;8.350;2023-12-22T03:07:07;3.17;;;1.60;;
4911;SDS011;2471;47.056;8.350;2023-12-22T03:09:33;3.78;;;2.47;;
4911;SDS011;2471;47.056;8.350;2023-12-22T03:11:59;3.75;;;2.80;;
4911;SDS011;2471;47.056;8.350;2023-12-22T03:14:31;5.63;;;3.20;;
4911;SDS011;2471;47.056;8.350;2023-12-22T03:17:00;6.80;;;4.30;;
4911;SDS011;2471;47.056;8.350;2023-12-22T03:19:26;5.63;;;3.45;;
4911;SDS011;2471;47.056;8.350;2023-12-22T03:21:53;5.70;;;3.80;;
4911;SDS011;2471;47.056;8.350;2023-12-22T03:24:19;4.55;;;2.55;;
4911;SDS011;2471;47.056;8.350;2023-12-22T03:26:46;4.40;;;2.97;;
4911;SDS011;2471;47.056;8.350;2023-12-22T03:29:12;7.13;;;4.50;;
4911;SDS011;2471;47.056;8.350;2023-12-22T03:31:38;5.47;;;3.60;;
4911;SDS011;2471;47.056;8.350;2023-12-22T03:34:06;3.70;;;2.35;;
4911;SDS011;2471;47.056;8.350;2023-12-22T03:36:32;2.70;;;1.63;;
4911;SDS011;2471;47.056;8.350;2023-12-22T03:38:58;2.28;;;1.55;;
4911;SDS011;2471;47.056;8.350;2023-12-22T03:41:24;3.60;;;2.88;;
4911;SDS011;2471;47.056;8.350;2023-12-22T03:43:50;3.88;;;2.50;;
4911;SDS011;2471;47.056;8.350;2023-12-22T03:46:16;3.55;;;2.60;;
4911;SDS011;2471;47.056;8.350;2023-12-22T03:48:43;5.18;;;3.40;;
4911;SDS011;2471;47.056;8.350;2023-12-22T03:51:09;2.40;;;1.63;;
4911;SDS011;2471;47.056;8.350;2023-12-22T03:53:37;2.55;;;1.88;;
4911;SDS011;2471;47.056;8.350;2023-12-22T03:56:03;3.70;;;2.45;;
4911;SDS011;2471;47.056;8.350;2023-12-22T03:58:29;1.67;;;1.58;;
4911;SDS011;2471;47.056;8.350;2023-12-22T04:00:55;3.65;;;2.35;;
4911;SDS011;2471;47.056;8.350;2023-12-22T04:03:21;1.50;;;0.90;;
4911;SDS011;2471;47.056;8.350;2023-12-22T04:05:47;2.08;;;1.70;;
4911;SDS011;2471;47.056;8.350;2023-12-22T04:08:13;3.30;;;2.00;;
4911;SDS011;2471;47.056;8.350;2023-12-22T04:10:39;4.03;;;2.90;;
4911;SDS011;2471;47.056;8.350;2023-12-22T04:13:05;2.47;;;1.67;;
4911;SDS011;2471;47.056;8.350;2023-12-22T04:15:31;6.10;;;3.60;;
4911;SDS011;2471;47.056;8.350;2023-12-22T04:17:57;5.90;;;2.90;;
4911;SDS011;2471;47.056;8.350;2023-12-22T04:20:23;3.17;;;1.70;;
4911;SDS011;2471;47.056;8.350;2023-12-22T04:22:49;10.55;;;5.18;;
4911;SDS011;2471;47.056;8.350;2023-12-22T04:25:15;3.78;;;2.20;;
4911;SDS011;2471;47.056;8.350;2023-12-22T04:27:41;8.70;;;2.55;;
4911;SDS011;2471;47.056;8.350;2023-12-22T04:30:07;8.65;;;4.30;;
4911;SDS011;2471;47.056;8.350;2023-12-22T04:32:33;6.97;;;3.65;;
4911;SDS011;2471;47.056;8.350;2023-12-22T04:34:59;9.07;;;4.68;;
4911;SDS011;2471;47.056;8.350;2023-12-22T04:37:25;6.32;;;3.10;;
4911;SDS011;2471;47.056;8.350;2023-12-22T04:39:51;6.90;;;3.47;;
4911;SDS011;2471;47.056;8.350;2023-12-22T04:42:18;7.03;;;3.13;;
4911;SDS011;2471;47.056;8.350;2023-12-22T04:44:44;7.28;;;2.25;;
4911;SDS011;2471;47.056;8.350;2023-12-22T04:47:10;6.80;;;3.30;;
4911;SDS011;2471;47.056;8.350;2023-12-22T04:49:37;7.28;;;2.75;;
4911;SDS011;2471;47.056;8.350;2023-12-22T04:52:03;8.05;;;3.25;;
4911;SDS011;2471;47.056;8.350;2023-12-22T04:54:29;6.82;;;3.10;;
4911;SDS011;2471;47.056;8.350;2023-12-22T04:56:55;10.02;;;5.00;;
4911;SDS011;2471;47.056;8.350;2023-12-22T04:59:21;13.40;;;6.40;;
4911;SDS011;2471;47.056;8.350;2023-12-22T05:01:47;10.20;;;5.15;;
4911;SDS011;2471;47.056;8.350;2023-12-22T05:04:13;8.93;;;3.80;;
4911;SDS011;2471;47.056;8.350;2023-12-22T05:06:39;10.55;;;4.75;;
4911;SDS011;2471;47.056;8.350;2023-12-22T05:09:05;8.25;;;3.25;;
4911;SDS011;2471;47.056;8.350;2023-12-22T05:11:31;8.60;;;4.13;;
4911;SDS011;2471;47.056;8.350;2023-12-22T05:13:57;9.07;;;5.03;;
4911;SDS011;2471;47.056;8.350;2023-12-22T05:16:24;8.82;;;3.65;;
4911;SDS011;2471;47.056;8.350;2023-12-22T05:18:50;7.30;;;3.07;;
4911;SDS011;2471;47.056;8.350;2023-12-22T05:21:16;6.27;;;2.20;;
4911;SDS011;2471;47.056;8.350;2023-12-22T05:23:42;8.85;;;2.60;;
4911;SDS011;2471;47.056;8.350;2023-12-22T05:26:08;3.75;;;1.77;;
4911;SDS011;2471;47.056;8.350;2023-12-22T05:28:34;9.00;;;2.78;;
4911;SDS011;2471;47.056;8.350;2023-12-22T05:31:00;5.53;;;3.55;;
4911;SDS011;2471;47.056;8.350;2023-12-22T05:33:26;8.77;;;4.72;;
4911;SDS011;2471;47.056;8.350;2023-12-22T05:35:52;8.52;;;3.47;;
4911;SDS011;2471;47.056;8.350;2023-12-22T05:38:18;6.57;;;3.17;;
4911;SDS011;2471;47.056;8.350;2023-12-22T05:40:44;8.75;;;4.45;;
4911;SDS011;2471;47.056;8.350;2023-12-22T05:43:11;8.27;;;3.20;;
4911;SDS011;2471;47.056;8.350;2023-12-22T05:45:37;9.68;;;3.53;;
4911;SDS011;2471;47.056;8.350;2023-12-22T05:48:03;6.70;;;3.67;;
4911;SDS011;2471;47.056;8.350;2023-12-22T05:50:29;8.98;;;3.60;;
4911;SDS011;2471;47.056;8.350;2023-12-22T05:52:55;10.07;;;4.90;;
4911;SDS011;2471;47.056;8.350;2023-12-22T05:55:21;8.63;;;4.03;;
4911;SDS011;2471;47.056;8.350;2023-12-22T05:57:47;11.02;;;5.78;;
4911;SDS011;2471;47.056;8.350;2023-12-22T06:00:13;10.77;;;5.10;;
4911;SDS011;2471;47.056;8.350;2023-12-22T06:02:40;5.78;;;2.65;;
4911;SDS011;2471;47.056;8.350;2023-12-22T06:05:06;6.13;;;2.60;;
4911;SDS011;2471;47.056;8.350;2023-12-22T06:07:32;9.10;;;4.35;;
4911;SDS011;2471;47.056;8.350;2023-12-22T06:09:58;8.48;;;4.47;;
4911;SDS011;2471;47.056;8.350;2023-12-22T06:12:24;8.57;;;3.80;;
4911;SDS011;2471;47.056;8.350;2023-12-22T06:14:50;7.60;;;3.53;;
4911;SDS011;2471;47.056;8.350;2023-12-22T06:17:16;7.40;;;3.10;;
4911;SDS011;2471;47.056;8.350;2023-12-22T06:19:42;12.10;;;6.20;;
4911;SDS011;2471;47.056;8.350;2023-12-22T06:22:11;9.63;;;4.13;;
4911;SDS011;2471;47.056;8.350;2023-12-22T06:24:36;4.78;;;2.78;;
4911;SDS011;2471;47.056;8.350;2023-12-22T06:27:02;7.10;;;4.45;;
4911;SDS011;2471;47.056;8.350;2023-12-22T06:29:28;8.65;;;4.28;;
4911;SDS011;2471;47.056;8.350;2023-12-22T06:31:55;8.05;;;4.28;;
4911;SDS011;2471;47.056;8.350;2023-12-22T06:34:21;2.53;;;2.10;;
4911;SDS011;2471;47.056;8.350;2023-12-22T06:36:47;4.87;;;2.80;;
4911;SDS011;2471;47.056;8.350;2023-12-22T06:39:14;6.50;;;3.35;;
4911;SDS011;2471;47.056;8.350;2023-12-22T06:41:40;1.50;;;1.40;;
4911;SDS011;2471;47.056;8.350;2023-12-22T06:44:06;4.53;;;2.50;;
4911;SDS011;2471;47.056;8.350;2023-12-22T06:46:32;2.10;;;1.65;;
4911;SDS011;2471;47.056;8.350;2023-12-22T06:48:58;6.55;;;3.90;;
4911;SDS011;2471;47.056;8.350;2023-12-22T06:53:55;4.47;;;2.88;;
4911;SDS011;2471;47.056;8.350;2023-12-22T06:56:22;2.05;;;1.52;;
4911;SDS011;2471;47.056;8.350;2023-12-22T06:58:49;6.10;;;3.03;;
4911;SDS011;2471;47.056;8.350;2023-12-22T07:01:36;5.43;;;3.05;;
4911;SDS011;2471;47.056;8.350;2023-12-22T07:04:02;4.78;;;1.95;;
4911;SDS011;2471;47.056;8.350;2023-12-22T07:06:29;1.70;;;1.50;;
4911;SDS011;2471;47.056;8.350;2023-12-22T07:11:24;3.92;;;2.20;;
4911;SDS011;2471;47.056;8.350;2023-12-22T07:13:50;5.15;;;3.10;;
4911;SDS011;2471;47.056;8.350;2023-12-22T07:16:16;8.07;;;3.97;;
4911;SDS011;2471;47.056;8.350;2023-12-22T07:18:41;4.88;;;2.28;;
4911;SDS011;2471;47.056;8.350;2023-12-22T07:21:07;3.58;;;2.50;;
4911;SDS011;2471;47.056;8.350;2023-12-22T07:23:34;4.93;;;2.70;;
4911;SDS011;2471;47.056;8.350;2023-12-22T07:26:00;3.60;;;2.72;;
4911;SDS011;2471;47.056;8.350;2023-12-22T07:28:25;5.00;;;2.55;;
4911;SDS011;2471;47.056;8.350;2023-12-22T07:30:52;5.53;;;3.40;;
4911;SDS011;2471;47.056;8.350;2023-12-22T07:33:20;6.05;;;3.40;;
4911;SDS011;2471;47.056;8.350;2023-12-22T07:35:45;7.75;;;3.38;;
4911;SDS011;2471;47.056;8.350;2023-12-22T07:38:11;9.07;;;3.78;;
4911;SDS011;2471;47.056;8.350;2023-12-22T07:40:37;5.30;;;3.17;;
4911;SDS011;2471;47.056;8.350;2023-12-22T07:43:03;13.75;;;3.75;;
4911;SDS011;2471;47.056;8.350;2023-12-22T07:45:29;7.15;;;2.35;;
4911;SDS011;2471;47.056;8.350;2023-12-22T07:47:55;7.30;;;2.65;;
4911;SDS011;2471;47.056;8.350;2023-12-22T07:50:21;6.72;;;3.60;;
4911;SDS011;2471;47.056;8.350;2023-12-22T07:52:47;8.77;;;4.50;;
4911;SDS011;2471;47.056;8.350;2023-12-22T07:55:15;9.70;;;3.80;;
4911;SDS011;2471;47.056;8.350;2023-12-22T07:57:41;12.00;;;4.50;;
4911;SDS011;2471;47.056;8.350;2023-12-22T08:00:07;11.95;;;3.53;;
4911;SDS011;2471;47.056;8.350;2023-12-22T08:02:36;7.47;;;3.30;;
4911;SDS011;2471;47.056;8.350;2023-12-22T08:05:02;10.00;;;3.95;;
4911;SDS011;2471;47.056;8.350;2023-12-22T08:07:28;12.15;;;3.60;;
4911;SDS011;2471;47.056;8.350;2023-12-22T08:09:54;8.38;;;3.83;;
4911;SDS011;2471;47.056;8.350;2023-12-22T08:12:20;10.90;;;3.83;;
4911;SDS011;2471;47.056;8.350;2023-12-22T08:14:46;8.02;;;2.83;;
4911;SDS011;2471;47.056;8.350;2023-12-22T08:17:12;3.50;;;2.47;;
4911;SDS011;2471;47.056;8.350;2023-12-22T08:19:38;7.77;;;2.83;;
4911;SDS011;2471;47.056;8.350;2023-12-22T08:22:08;3.65;;;1.60;;
4911;SDS011;2471;47.056;8.350;2023-12-22T08:24:34;4.47;;;2.00;;
4911;SDS011;2471;47.056;8.350;2023-12-22T08:27:00;3.00;;;1.40;;
4911;SDS011;2471;47.056;8.350;2023-12-22T08:29:26;5.70;;;2.07;;
4911;SDS011;2471;47.056;8.350;2023-12-22T08:31:52;5.38;;;2.08;;
4911;SDS011;2471;47.056;8.350;2023-12-22T08:34:18;3.45;;;2.60;;
4911;SDS011;2471;47.056;8.350;2023-12-22T08:36:44;8.05;;;3.53;;
4911;SDS011;2471;47.056;8.350;2023-12-22T08:39:10;4.35;;;2.25;;
4911;SDS011;2471;47.056;8.350;2023-12-22T08:41:37;3.60;;;2.20;;
4911;SDS011;2471;47.056;8.350;2023-12-22T08:44:06;3.50;;;1.50;;
4911;SDS011;2471;47.056;8.350;2023-12-22T08:46:33;3.22;;;2.00;;
4911;SDS011;2471;47.056;8.350;2023-12-22T08:48:59;4.35;;;2.20;;
4911;SDS011;2471;47.056;8.350;2023-12-22T08:51:28;6.95;;;3.65;;
4911;SDS011;2471;47.056;8.350;2023-12-22T08:53:54;6.00;;;3.83;;
4911;SDS011;2471;47.056;8.350;2023-12-22T08:56:21;4.87;;;2.40;;
4911;SDS011;2471;47.056;8.350;2023-12-22T08:58:47;5.70;;;3.13;;
4911;SDS011;2471;47.056;8.350;2023-12-22T09:01:15;7.00;;;3.50;;
4911;SDS011;2471;47.056;8.350;2023-12-22T09:03:41;3.95;;;2.13;;
4911;SDS011;2471;47.056;8.350;2023-12-22T09:06:13;6.57;;;3.85;;
4911;SDS011;2471;47.056;8.350;2023-12-22T09:08:39;5.03;;;2.80;;
4911;SDS011;2471;47.056;8.350;2023-12-22T09:11:05;7.97;;;2.65;;
4911;SDS011;2471;47.056;8.350;2023-12-22T09:13:31;2.58;;;1.77;;
4911;SDS011;2471;47.056;8.350;2023-12-22T09:15:57;4.65;;;2.15;;
4911;SDS011;2471;47.056;8.350;2023-12-22T09:18:23;6.05;;;2.90;;
4911;SDS011;2471;47.056;8.350;2023-12-22T09:20:49;3.33;;;1.80;;
4911;SDS011;2471;47.056;8.350;2023-12-22T09:23:15;2.80;;;2.20;;
4911;SDS011;2471;47.056;8.350;2023-12-22T09:25:41;5.10;;;2.78;;
4911;SDS011;2471;47.056;8.350;2023-12-22T09:28:07;4.22;;;1.90;;
4911;SDS011;2471;47.056;8.350;2023-12-22T09:30:33;4.90;;;2.40;;
4911;SDS011;2471;47.056;8.350;2023-12-22T09:32:59;3.63;;;2.28;;
4911;SDS011;2471;47.056;8.350;2023-12-22T09:35:25;2.35;;;1.95;;
4911;SDS011;2471;47.056;8.350;2023-12-22T09:37:53;4.13;;;2.42;;
4911;SDS011;2471;47.056;8.350;2023-12-22T09:40:19;3.22;;;2.28;;
4911;SDS011;2471;47.056;8.350;2023-12-22T09:42:46;5.35;;;2.97;;
4911;SDS011;2471;47.056;8.350;2023-12-22T09:45:13;3.67;;;2.45;;
4911;SDS011;2471;47.056;8.350;2023-12-22T09:47:43;4.28;;;2.13;;
4911;SDS011;2471;47.056;8.350;2023-12-22T09:50:10;2.78;;;2.03;;
4911;SDS011;2471;47.056;8.350;2023-12-22T09:52:36;3.17;;;2.05;;
4911;SDS011;2471;47.056;8.350;2023-12-22T09:55:03;5.55;;;2.78;;
4911;SDS011;2471;47.056;8.350;2023-12-22T09:57:30;4.78;;;2.65;;
4911;SDS011;2471;47.056;8.350;2023-12-22T09:59:57;3.63;;;1.83;;
4911;SDS011;2471;47.056;8.350;2023-12-22T10:02:25;2.95;;;2.13;;
4911;SDS011;2471;47.056;8.350;2023-12-22T10:04:54;5.40;;;3.00;;
4911;SDS011;2471;47.056;8.350;2023-12-22T10:07:20;3.40;;;2.13;;
4911;SDS011;2471;47.056;8.350;2023-12-22T10:09:47;7.43;;;3.60;;
4911;SDS011;2471;47.056;8.350;2023-12-22T10:12:13;7.60;;;3.08;;
4911;SDS011;2471;47.056;8.350;2023-12-22T10:14:40;9.05;;;2.72;;
4911;SDS011;2471;47.056;8.350;2023-12-22T10:17:06;10.70;;;3.42;;
4911;SDS011;2471;47.056;8.350;2023-12-22T10:19:32;9.18;;;4.60;;
4911;SDS011;2471;47.056;8.350;2023-12-22T10:21:58;8.35;;;3.40;;
4911;SDS011;2471;47.056;8.350;2023-12-22T10:24:37;7.60;;;3.05;;
4911;SDS011;2471;47.056;8.350;2023-12-22T10:27:03;6.47;;;2.90;;
4911;SDS011;2471;47.056;8.350;2023-12-22T10:29:29;7.57;;;3.25;;
4911;SDS011;2471;47.056;8.350;2023-12-22T10:31:55;5.85;;;2.92;;
4911;SDS011;2471;47.056;8.350;2023-12-22T10:34:21;8.38;;;3.67;;
4911;SDS011;2471;47.056;8.350;2023-12-22T10:36:47;4.53;;;2.55;;
4911;SDS011;2471;47.056;8.350;2023-12-22T10:39:13;6.30;;;2.70;;
4911;SDS011;2471;47.056;8.350;2023-12-22T10:41:40;5.10;;;1.60;;
4911;SDS011;2471;47.056;8.350;2023-12-22T10:44:06;3.92;;;2.20;;
4911;SDS011;2471;47.056;8.350;2023-12-22T10:46:32;8.98;;;2.92;;
4911;SDS011;2471;47.056;8.350;2023-12-22T10:49:00;5.97;;;1.42;;
4911;SDS011;2471;47.056;8.350;2023-12-22T10:51:25;3.42;;;2.10;;
4911;SDS011;2471;47.056;8.350;2023-12-22T10:53:51;4.82;;;2.55;;
4911;SDS011;2471;47.056;8.350;2023-12-22T10:56:17;3.35;;;2.00;;
4911;SDS011;2471;47.056;8.350;2023-12-22T10:58:43;5.87;;;3.00;;
4911;SDS011;2471;47.056;8.350;2023-12-22T11:01:11;4.03;;;1.90;;
4911;SDS011;2471;47.056;8.350;2023-12-22T11:03:39;3.38;;;1.75;;
4911;SDS011;2471;47.056;8.350;2023-12-22T11:06:08;6.05;;;2.30;;
4911;SDS011;2471;47.056;8.350;2023-12-22T11:08:36;3.20;;;1.83;;
4911;SDS011;2471;47.056;8.350;2023-12-22T11:11:04;3.17;;;2.35;;
4911;SDS011;2471;47.056;8.350;2023-12-22T11:13:34;2.10;;;1.10;;
4911;SDS011;2471;47.056;8.350;2023-12-22T11:16:00;5.75;;;2.60;;
4911;SDS011;2471;47.056;8.350;2023-12-22T11:18:27;3.25;;;2.30;;
4911;SDS011;2471;47.056;8.350;2023-12-22T11:20:54;2.10;;;1.53;;
4911;SDS011;2471;47.056;8.350;2023-12-22T11:23:20;3.03;;;1.43;;
4911;SDS011;2471;47.056;8.350;2023-12-22T11:25:47;2.33;;;1.40;;
4911;SDS011;2471;47.056;8.350;2023-12-22T11:28:15;3.80;;;1.40;;
4911;SDS011;2471;47.056;8.350;2023-12-22T11:30:42;3.83;;;1.65;;
4911;SDS011;2471;47.056;8.350;2023-12-22T11:33:09;4.57;;;2.03;;
4911;SDS011;2471;47.056;8.350;2023-12-22T11:35:35;3.30;;;1.55;;
4911;SDS011;2471;47.056;8.350;2023-12-22T11:38:02;1.75;;;1.20;;
4911;SDS011;2471;47.056;8.350;2023-12-22T11:40:28;2.13;;;1.65;;
4911;SDS011;2471;47.056;8.350;2023-12-22T11:42:54;3.03;;;1.50;;
4911;SDS011;2471;47.056;8.350;2023-12-22T11:45:21;2.88;;;1.50;;
4911;SDS011;2471;47.056;8.350;2023-12-22T11:47:49;2.10;;;1.90;;
4911;SDS011;2471;47.056;8.350;2023-12-22T11:50:28;1.88;;;1.70;;
4911;SDS011;2471;47.056;8.350;2023-12-22T11:52:54;2.33;;;1.40;;
4911;SDS011;2471;47.056;8.350;2023-12-22T12:00:52;4.13;;;2.90;;
4911;SDS011;2471;47.056;8.350;2023-12-22T12:03:18;2.30;;;1.60;;
4911;SDS011;2471;47.056;8.350;2023-12-22T12:05:44;1.75;;;1.27;;
4911;SDS011;2471;47.056;8.350;2023-12-22T12:08:10;4.43;;;2.92;;
4911;SDS011;2471;47.056;8.350;2023-12-22T12:10:51;2.47;;;1.83;;
4911;SDS011;2471;47.056;8.350;2023-12-22T12:13:21;1.57;;;0.97;;
4911;SDS011;2471;47.056;8.350;2023-12-22T12:15:49;2.75;;;2.03;;
4911;SDS011;2471;47.056;8.350;2023-12-22T12:18:17;3.10;;;1.90;;
4911;SDS011;2471;47.056;8.350;2023-12-22T12:20:47;0.93;;;0.80;;
4911;SDS011;2471;47.056;8.350;2023-12-22T12:23:14;2.03;;;1.00;;
4911;SDS011;2471;47.056;8.350;2023-12-22T12:25:40;1.60;;;1.13;;
4911;SDS011;2471;47.056;8.350;2023-12-22T12:28:08;3.30;;;1.92;;
4911;SDS011;2471;47.056;8.350;2023-12-22T12:30:35;2.90;;;1.10;;
4911;SDS011;2471;47.056;8.350;2023-12-22T12:33:07;2.00;;;1.02;;
4911;SDS011;2471;47.056;8.350;2023-12-22T12:35:34;1.58;;;1.15;;
4911;SDS011;2471;47.056;8.350;2023-12-22T12:38:00;2.67;;;2.28;;
4911;SDS011;2471;47.056;8.350;2023-12-22T12:40:29;1.30;;;1.00;;
4911;SDS011;2471;47.056;8.350;2023-12-22T12:42:57;2.60;;;1.90;;
4911;SDS011;2471;47.056;8.350;2023-12-22T12:45:23;2.83;;;1.85;;
4911;SDS011;2471;47.056;8.350;2023-12-22T12:48:02;0.60;;;0.50;;
4911;SDS011;2471;47.056;8.350;2023-12-22T12:50:28;1.85;;;1.17;;
4911;SDS011;2471;47.056;8.350;2023-12-22T12:52:56;2.22;;;1.60;;
4911;SDS011;2471;47.056;8.350;2023-12-22T12:55:22;1.00;;;0.80;;
4911;SDS011;2471;47.056;8.350;2023-12-22T12:57:49;1.90;;;1.48;;
4911;SDS011;2471;47.056;8.350;2023-12-22T13:00:16;0.70;;;0.70;;
4911;SDS011;2471;47.056;8.350;2023-12-22T13:02:42;1.20;;;1.00;;
4911;SDS011;2471;47.056;8.350;2023-12-22T13:05:08;2.60;;;1.50;;
4911;SDS011;2471;47.056;8.350;2023-12-22T13:07:36;1.20;;;1.10;;
4911;SDS011;2471;47.056;8.350;2023-12-22T13:10:02;1.80;;;1.40;;
4911;SDS011;2471;47.056;8.350;2023-12-22T13:12:29;1.83;;;1.50;;
4911;SDS011;2471;47.056;8.350;2023-12-22T13:15:01;1.98;;;1.20;;
4911;SDS011;2471;47.056;8.350;2023-12-22T13:17:27;1.48;;;1.38;;
4911;SDS011;2471;47.056;8.350;2023-12-22T13:19:53;1.85;;;1.70;;
4911;SDS011;2471;47.056;8.350;2023-12-22T13:22:19;1.55;;;1.40;;
4911;SDS011;2471;47.056;8.350;2023-12-22T13:24:55;1.50;;;1.40;;
4911;SDS011;2471;47.056;8.350;2023-12-22T13:27:23;1.85;;;1.55;;
4911;SDS011;2471;47.056;8.350;2023-12-22T13:29:49;1.90;;;0.90;;
4911;SDS011;2471;47.056;8.350;2023-12-22T13:32:17;1.02;;;1.00;;
4911;SDS011;2471;47.056;8.350;2023-12-22T13:34:50;1.50;;;1.40;;
4911;SDS011;2471;47.056;8.350;2023-12-22T13:37:16;1.40;;;1.30;;
4911;SDS011;2471;47.056;8.350;2023-12-22T13:39:42;1.70;;;1.30;;
4911;SDS011;2471;47.056;8.350;2023-12-22T13:42:17;1.00;;;0.80;;
4911;SDS011;2471;47.056;8.350;2023-12-22T13:44:45;1.77;;;1.67;;
4911;SDS011;2471;47.056;8.350;2023-12-22T13:47:12;1.70;;;1.50;;
4911;SDS011;2471;47.056;8.350;2023-12-22T13:49:38;1.05;;;0.90;;
4911;SDS011;2471;47.056;8.350;2023-12-22T13:52:06;1.95;;;1.50;;
4911;SDS011;2471;47.056;8.350;2023-12-22T13:54:32;1.30;;;1.20;;
4911;SDS011;2471;47.056;8.350;2023-12-22T13:56:59;2.80;;;1.08;;
4911;SDS011;2471;47.056;8.350;2023-12-22T13:59:32;0.80;;;0.60;;
4911;SDS011;2471;47.056;8.350;2023-12-22T14:01:58;1.35;;;0.93;;
4911;SDS011;2471;47.056;8.350;2023-12-22T14:04:24;1.10;;;1.00;;
4911;SDS011;2471;47.056;8.350;2023-12-22T14:06:51;0.60;;;0.50;;
4911;SDS011;2471;47.056;8.350;2023-12-22T14:09:17;0.87;;;0.57;;
4911;SDS011;2471;47.056;8.350;2023-12-22T14:11:47;0.70;;;0.70;;
4911;SDS011;2471;47.056;8.350;2023-12-22T14:14:13;0.70;;;0.60;;
4911;SDS011;2471;47.056;8.350;2023-12-22T14:16:40;0.70;;;0.50;;
4911;SDS011;2471;47.056;8.350;2023-12-22T14:19:05;0.70;;;0.50;;
4911;SDS011;2471;47.056;8.350;2023-12-22T14:21:31;0.70;;;0.70;;
4911;SDS011;2471;47.056;8.350;2023-12-22T14:23:57;1.40;;;0.87;;
4911;SDS011;2471;47.056;8.350;2023-12-22T14:26:23;2.70;;;1.20;;
4911;SDS011;2471;47.056;8.350;2023-12-22T14:28:49;0.73;;;0.70;;
4911;SDS011;2471;47.056;8.350;2023-12-22T14:31:16;0.90;;;0.65;;
4911;SDS011;2471;47.056;8.350;2023-12-22T14:33:42;0.90;;;0.80;;
4911;SDS011;2471;47.056;8.350;2023-12-22T14:36:08;0.90;;;0.85;;
4911;SDS011;2471;47.056;8.350;2023-12-22T14:38:34;1.00;;;0.90;;
4911;SDS011;2471;47.056;8.350;2023-12-22T14:41:00;0.90;;;0.77;;
4911;SDS011;2471;47.056;8.350;2023-12-22T14:43:26;0.88;;;0.70;;
4911;SDS011;2471;47.056;8.350;2023-12-22T14:45:52;0.80;;;0.70;;
4911;SDS011;2471;47.056;8.350;2023-12-22T14:48:18;0.90;;;0.75;;
4911;SDS011;2471;47.056;8.350;2023-12-22T14:50:43;0.80;;;0.70;;
4911;SDS011;2471;47.056;8.350;2023-12-22T14:53:09;0.68;;;0.60;;
4911;SDS011;2471;47.056;8.350;2023-12-22T14:55:36;0.90;;;0.80;;
4911;SDS011;2471;47.056;8.350;2023-12-22T14:58:01;0.77;;;0.70;;
4911;SDS011;2471;47.056;8.350;2023-12-22T15:00:28;1.10;;;0.90;;
4911;SDS011;2471;47.056;8.350;2023-12-22T15:02:55;1.10;;;1.00;;
4911;SDS011;2471;47.056;8.350;2023-12-22T15:05:21;1.30;;;0.60;;
4911;SDS011;2471;47.056;8.350;2023-12-22T15:07:47;1.58;;;1.17;;
4911;SDS011;2471;47.056;8.350;2023-12-22T15:10:13;0.70;;;0.70;;
4911;SDS011;2471;47.056;8.350;2023-12-22T15:12:39;1.40;;;0.90;;
4911;SDS011;2471;47.056;8.350;2023-12-22T15:15:07;1.10;;;1.00;;
4911;SDS011;2471;47.056;8.350;2023-12-22T15:17:33;0.70;;;0.50;;
4911;SDS011;2471;47.056;8.350;2023-12-22T15:19:59;1.00;;;0.70;;
4911;SDS011;2471;47.056;8.350;2023-12-22T15:22:28;0.90;;;0.60;;